Elia Giuliani

Scout - Fiorentina
5 Dez 2027
Sonntag
Verarbeitung

Persönlichkeit

Anpassungsfähigkeit (7) Ehrgeiz (6) Kontroverse (9) Loyalität (8) Druck (1) Professionalität (9) Fairness (12) Temperament (4)

Profil

Trainerstil Demokratisch
Lizenz Nationale B
Entschlossenheit 9
Menschenführung 6
Motivation 11
Disziplin 15
Arbeitszufriedenheit
100%
Ermüdung
0%
Rolle Scout
Gehalt 79.6K p/W
Vertrag 14.03.2029

Leistung

Verhalten Gut
Trainingseffektivität
59%
Spielerentwicklung
65%
Verletzungsprävention
35%
Taktische Umsetzung
50%

Letzte Ereignisse

Nahm an einer Scouting-Besprechung teil jetzt
Empfahl ein Transferziel jetzt
Nahm an einer Scouting-Besprechung teil 7T her
Empfahl ein Transferziel 7T her
Empfahl ein Transferziel 7T her
Empfahl ein Transferziel 7T her
Empfahl ein Transferziel 14T her
Empfahl ein Transferziel 14T her

Aktuell beobachtet

74
Spieler Verein Status Fähigkeit Vertrauen Beobachtet Zuletzt beobachtet Letzte Stimme
Diego Moreira AC Milan Aktiv 145 / 143 79% 1 02.08.2027 Befürworten
Kenan Yıldız Juventus Aktiv 154 / 155 79% 1 01.06.2027 Befürworten
Franco Israel Torino Aktiv 140 / 144 40% 2 31.05.2027 -
Senne Lammens AS Roma Aktiv 151 / 149 40% 1 31.05.2027 -
Lennon Miller AC Milan Aktiv 138 / 138 40% 2 30.05.2027 -
Manuel Salcedo Tigres Aktiv 121 / 129 40% 1 30.05.2027 -
Sascha Britschgi Cosenza Aktiv 124 / 122 40% 1 30.05.2027 -
Diego Gómez Brighton Aktiv 147 / 140 40% 1 29.05.2027 -
Louis Leroux FC Nantes Aktiv 130 / 138 40% 1 29.05.2027 -
Alex Tóth Bournemouth Aktiv 127 / 123 40% 1 29.05.2027 -
Manu Koné AS Roma Aktiv 170 / 172 40% 4 24.05.2027 -
Nicolò Rovella Lazio Aktiv 149 / 150 40% 4 24.05.2027 -
Khéphren Thuram Juventus Aktiv 155 / 159 40% 5 24.05.2027 -
Alejandro Almaraz Eibar Aktiv 105 / 122 40% 2 18.05.2027 -
Gonçalo Oliveira Benfica Aktiv 114 / 110 40% 1 18.05.2027 -
Lucas Bergvall Tottenham Aktiv 148 / 157 40% 3 17.05.2027 -
Tom Atcheson Crewe Alexandra Aktiv 114 / 121 40% 1 16.05.2027 -
Jorrel Hato Chelsea Aktiv 147 / 147 40% 1 15.05.2027 -
Yussif Saidu Zaragoza Aktiv 125 / 122 40% 1 15.05.2027 -
Adam Wharton Crystal Palace Aktiv 148 / 162 40% 4 13.05.2027 -
Juanlu Bournemouth Aktiv 152 / 158 40% 2 13.05.2027 -
Abdoulaye Kanté Al-Ettifaq Aktiv 119 / 120 40% 1 11.05.2027 -
Eduardo Felicíssimo Sporting CP Aktiv 109 / 127 40% 1 11.05.2027 -
Agustín Medina Athletic Bilbao Aktiv 114 / 121 40% 1 11.05.2027 -
Wesley Fofana Chelsea Aktiv 160 / 158 40% 3 10.05.2027 -
Alex Scott Bournemouth Aktiv 154 / 159 40% 3 10.05.2027 -
Alessandro Buongiorno Udinese Aktiv 159 / 151 40% 2 10.05.2027 -
Pierre Kalulu Juventus Aktiv 151 / 150 40% 4 07.05.2027 -
Amadou Onana Aston Villa Aktiv 155 / 159 40% 2 06.05.2027 -
Nuno Tavares Lazio Aktiv 148 / 141 40% 1 06.05.2027 -
Máximo Perrone Como Aktiv 138 / 137 40% 2 05.05.2027 -
Aaron Hickey Brentford Aktiv 146 / 143 40% 2 03.05.2027 -
Marc Guéhi Manchester City Aktiv 168 / 168 40% 2 03.05.2027 -
Maxence Lacroix Chelsea Aktiv 155 / 150 40% 1 02.05.2027 -
Levi Colwill Chelsea Aktiv 156 / 165 40% 2 29.04.2027 -
Tino Livramento Newcastle United Aktiv 152 / 156 40% 2 29.04.2027 -
Éderson Atalanta Aktiv 157 / 164 40% 1 26.04.2027 -
Kenneth Taylor Lazio Aktiv 147 / 150 40% 1 18.04.2027 -
Andrea Cambiaso Juventus Aktiv 153 / 141 40% 1 18.04.2027 -
Óscar Mingueza Crystal Palace Aktiv 146 / 153 40% 3 16.04.2027 -
Matthijs de Ligt Manchester United Aktiv 160 / 165 40% 1 16.04.2027 -
Raoul Bellanova Atalanta Aktiv 144 / 155 40% 3 14.04.2027 -
Joško Gvardiol Manchester City Aktiv 165 / 162 40% 1 09.04.2027 -
Yehor Yarmoliuk Brentford Aktiv 143 / 151 40% 1 07.04.2027 -
Quinten Timber Crystal Palace Aktiv 154 / 153 40% 1 06.04.2027 -
Ethan Ampadu Leeds United Aktiv 144 / 148 40% 1 05.04.2027 -
Noah Sadiki Sunderland Aktiv 141 / 144 40% 1 05.04.2027 -
Pedro Porro Tottenham Aktiv 149 / 147 40% 2 04.04.2027 -
Jeremie Frimpong Liverpool Aktiv 163 / 156 40% 4 03.04.2027 -
Trevoh Chalobah Como Aktiv 152 / 162 40% 1 02.04.2027 -
Lewis Ferguson Bologna Aktiv 145 / 140 40% 1 25.03.2027 -
Oumar Solet Udinese Aktiv 146 / 141 40% 1 24.03.2027 -
Billy Gilmour Napoli Aktiv 145 / 140 40% 1 22.03.2027 -
Svetoslav Vutsov Levski Aktiv 122 / 131 40% 1 24.12.2026 -
Mark Travers Everton Aktiv 143 / 135 40% 2 18.12.2026 -
Josh Keeley Luton Town Aktiv 119 / 119 40% 1 16.12.2026 -
Radek Vítek Middlesbrough Aktiv 133 / 133 40% 3 10.12.2026 -
Maduka Okoye Udinese Aktiv 141 / 139 40% 1 04.12.2026 -
Dinko Horkaš Al Wasl Aktiv 137 / 144 40% 1 04.12.2026 -
James Trafford Leeds United Aktiv 143 / 143 40% 3 08.11.2026 -
Bilal Bayazıt Kayserispor Aktiv 127 / 108 40% 1 08.11.2026 -
Brandon Austin Bristol City Aktiv 136 / 126 40% 1 06.11.2026 -
Kazuki Fujita Avispa Fukuoka Aktiv 120 / 111 40% 1 05.11.2026 -
Caoimhin Kelleher Brentford Aktiv 151 / 154 40% 1 27.10.2026 -
Anthony Patterson Wrexham Aktiv 134 / 119 40% 2 19.10.2026 -
Elia Caprile Cagliari Aktiv 147 / 139 40% 1 19.10.2026 -
Patrick Schulte Columbus Crew Aktiv 124 / 118 40% 3 12.10.2026 -
Michael Cooper Sheffield United Aktiv 122 / 136 40% 1 10.10.2026 -
Arijanet Murić Sassuolo Aktiv 133 / 133 40% 3 08.10.2026 -
Grégoire Coudert Burnley Aktiv 131 / 135 40% 1 20.09.2026 -
Fernando Tapia Club America Aktiv 128 / 122 40% 1 16.09.2026 -
Gianluigi Donnarumma Inter Aktiv 171 / 168 40% 1 13.09.2026 -
Matvey Safonov Paris Saint-Germain Aktiv 156 / 149 40% 1 10.09.2026 -
Fali Candé Sassuolo Aktiv 117 / 113 72% 1 24.08.2026 Befürworten